Airfield :
LOGIN :

Register | Disclaimer

   EN    FR    IT 

 










Legend :    VFR   Marginal VFR   IFR   Intensive IFR   Very Intensive IFR
Visi :
Ceiling :
>= 8 km
>= 3000ft
5 to 8 km
1000 to 3000 ft
1500m to 5 km
500 to 1000 ft
800 to 1500m
200 to 500 ft
< 800m
< 200 ft
Symbols :   Thunderstorms  Fog  Heavy snow  Heavy precipitations  Wind > 20 kt
SIGMETs :     Misc.  Thunderstorms  Icing  Turbulence  Mountain Waves  Volcanic Ashes







- Airport Elevation : 1416 ft
- IATA code : ZRH


LSZH - Zurich

CURRENT METAR :
  • 211350Z 20004KT 160V250 CAVOK 15/01 Q1028 NOSIG

EXPIRED METARs :
  • 211320Z 23004KT 180V270 CAVOK 14/01 Q1028 NOSIG
  • 211250Z 20003KT 150V280 CAVOK 14/01 Q1028 NOSIG
  • 211220Z VRB02KT CAVOK 13/02 Q1029 NOSIG
  • 211150Z VRB02KT CAVOK 12/03 Q1029 NOSIG
  • 211120Z VRB02KT CAVOK 11/02 Q1029 NOSIG

TAF TAF LSZH
Valid from the 21 at 12:00 until the 22 at 18:00 UTC


211125Z 2112/2218 VRB03KT CAVOK TX14/2114Z TN01/2204Z TX12/2214Z
BECMG 2123/2202 9999 BKN060
BECMG 2213/2216 05006KT
ATIS : +41 43 816 2295 (DEP) +41 43 816 2294 (ARR)
No reported NOTAMs for that airfield.



MET'MAP, your aeronautical weather chart ! - Copyright ORBIFLY December 2007 - Disclaimer

ORBIFLY MET'MAP TEAM :

Programming & Development : Alexandra Zaïnal
Concept & Development : Baudouin d'Aumeries
Co-Development & Prog : Marc-Olivier Méhu
Technical & hardware support : Manuel Goepfert

Contact : metmap@orbifly.com




SOURCES & CREDITS :

   NOAA